Terminal Aerodrome Forecast
Issued by NWS Buffalo, NY

Home | Current Version | Previous Version | Text Only | Print | Product List | Glossary On
Versions: 1 2 3 4 5 6 7 8 9 10 11 12 13 14 15 16 17 18 19 20 21 22 23 24 25 26 27
000
FTUS41 KBUF 171100
TAFART
TAF
KART 171121Z 1712/1812 VRB04KT P6SM SKC
     FM171600 23010KT P6SM SCT045
     FM171900 24011KT P6SM SCT120
     FM180100 VRB03KT P6SM BKN100
     FM180300 VRB03KT P6SM BKN045
     FM181000 36006KT P6SM BKN035=

USA.gov is the U.S. government's official web portal to all federal, state and local government web resources and services.